Hokendauqua, Pennsylvania
Current Conditions -  °F | °C
As of 4:51 AM on Thursday 18 Dec 2014 (Local Time) from KABE Reporting Station
Clear Clear  
Wind Chill: 27°   Ceiling: Unl
Heat Index: 34°   Visibility: 10mi
Dew Point: 20°   Wind: 9mph
Humidity: 56%   Direction: 270°W
Pressure: 29.97"   Gusts: NA
Location:  40.6562°N, 75.5043°W
Report Text: KABE 180951Z 27008KT 10SM CLR 01/M07 A2997 RMK AO2 SLP151 T00111067
Loading
Personal Weather Stations






























Interactive Weather Map New forecast layout! Learn more

10-Day Weather Forecast

Advertisements
Track Severe Weather on mobile